Terminal Aerodrome Forecast
Issued by NWS

Home | Current Version | Previous Version | Text Only | Print | Product List | Glossary On
Versions: 1 2 3 4 5 6 7 8 9 10 11 12 13 14 15
000
FTUS44 KBMX 231406 AAA
TAFANB
TAF AMD
KANB 231406Z 2314/2412 23002KT P6SM VCSH FEW012 BKN035 OVC080
      TEMPO 2314/2316 5SM -RA BR BKN015 OVC035
     FM232000 26006KT P6SM VCSH SCT025 BKN050
     FM240200 24003KT P6SM BKN050 OVC100
     FM240900 30003KT P6SM -RA OVC025=

USA.gov is the U.S. government's official web portal to all federal, state and local government web resources and services.